createdAt,value
2019-05-03T00:02:29.346Z,8.50
2019-05-03T00:05:17.017Z,8.50
2019-05-03T00:07:45.710Z,8.50
2019-05-03T00:10:14.786Z,8.40
2019-05-03T00:12:43.265Z,8.40
2019-05-03T00:15:13.802Z,8.40
2019-05-03T00:17:42.266Z,8.40
2019-05-03T00:20:11.643Z,8.40
2019-05-03T00:22:41.880Z,8.40
2019-05-03T00:25:12.734Z,8.40
2019-05-03T00:27:42.657Z,8.40
2019-05-03T00:30:11.983Z,8.40
2019-05-03T00:32:42.579Z,8.30
2019-05-03T00:35:15.282Z,8.40
2019-05-03T00:37:45.349Z,8.40
2019-05-03T00:40:18.220Z,8.40
2019-05-03T00:42:46.648Z,8.30
2019-05-03T00:45:16.716Z,8.20
2019-05-03T00:47:45.145Z,8.10
2019-05-03T00:50:13.868Z,8.20
2019-05-03T00:52:42.424Z,8.00
2019-05-03T00:55:16.899Z,8.00
2019-05-03T00:57:41.629Z,8.10
2019-05-03T01:00:12.295Z,8.00
2019-05-03T01:02:42.367Z,7.80
2019-05-03T01:05:11.964Z,7.70
2019-05-03T01:07:42.258Z,7.70
2019-05-03T01:10:11.916Z,7.70
2019-05-03T01:12:41.653Z,7.70
2019-05-03T01:15:12.412Z,7.70
2019-05-03T01:17:41.993Z,7.70
2019-05-03T01:20:11.974Z,7.70
2019-05-03T01:22:42.402Z,7.60
2019-05-03T01:25:12.092Z,7.60
2019-05-03T01:27:42.613Z,7.60
2019-05-03T01:30:11.945Z,7.70
2019-05-03T01:32:41.838Z,7.60
2019-05-03T01:35:12.297Z,7.70
2019-05-03T01:37:42.478Z,7.70
2019-05-03T01:40:12.552Z,7.60
2019-05-03T01:42:42.617Z,7.70
2019-05-03T01:45:12.050Z,7.60
2019-05-03T01:47:52.650Z,7.60
2019-05-03T01:50:32.062Z,7.70
2019-05-03T01:53:02.239Z,7.70
2019-05-03T01:55:43.540Z,7.60
2019-05-03T01:58:02.581Z,7.60
2019-05-03T02:00:31.898Z,7.60
2019-05-03T02:03:12.276Z,7.60
2019-05-03T02:05:43.024Z,7.60
2019-05-03T02:08:13.492Z,7.60
2019-05-03T02:10:43.597Z,7.60
2019-05-03T02:13:12.338Z,7.60
2019-05-03T02:15:42.179Z,7.60
2019-05-03T02:18:14.748Z,7.60
2019-05-03T02:20:41.852Z,7.60
2019-05-03T02:23:11.947Z,7.60
2019-05-03T02:25:41.855Z,7.60
2019-05-03T02:28:12.492Z,7.60
2019-05-03T02:30:44.183Z,7.60
2019-05-03T02:33:13.343Z,7.50
2019-05-03T02:35:42.989Z,7.50
2019-05-03T02:38:13.028Z,7.50
2019-05-03T02:40:42.950Z,7.50
2019-05-03T02:43:19.690Z,7.60
2019-05-03T02:45:58.634Z,7.60
2019-05-03T02:48:31.594Z,7.60
2019-05-03T02:51:00.017Z,7.60
2019-05-03T02:53:28.542Z,7.50
2019-05-03T02:56:12.984Z,7.50
2019-05-03T02:58:27.161Z,7.50
2019-05-03T03:01:06.702Z,7.60
2019-05-03T03:03:36.546Z,7.50
2019-05-03T03:06:06.958Z,7.50
2019-05-03T03:08:37.650Z,7.40
2019-05-03T03:11:08.124Z,7.40
2019-05-03T03:13:38.427Z,7.40
2019-05-03T03:16:09.426Z,7.50
2019-05-03T03:18:39.753Z,7.50
2019-05-03T03:21:11.944Z,7.50
2019-05-03T03:23:49.137Z,7.50
2019-05-03T03:26:33.345Z,7.50
2019-05-03T03:28:56.367Z,7.50
2019-05-03T03:31:37.474Z,7.40
2019-05-03T03:34:08.363Z,7.30
2019-05-03T03:36:58.832Z,7.30
2019-05-03T03:39:16.190Z,7.30
2019-05-03T03:41:47.089Z,7.20
2019-05-03T03:44:18.522Z,7.20
2019-05-03T03:46:49.017Z,7.20
2019-05-03T03:49:19.770Z,7.10
2019-05-03T03:51:52.607Z,7.00
2019-05-03T03:54:22.707Z,7.10
2019-05-03T03:57:03.267Z,7.20
2019-05-03T03:59:26.943Z,7.20
2019-05-03T04:01:56.013Z,7.20
2019-05-03T04:04:26.194Z,7.10
2019-05-03T04:06:58.533Z,7.10
2019-05-03T04:09:25.767Z,7.10
2019-05-03T04:11:56.754Z,7.00
2019-05-03T04:14:30.009Z,7.00
2019-05-03T04:17:16.839Z,7.00
2019-05-03T04:19:47.001Z,7.10
2019-05-03T04:22:16.457Z,7.00
2019-05-03T04:24:46.020Z,7.00
2019-05-03T04:27:22.217Z,7.10
2019-05-03T04:29:45.772Z,7.10
2019-05-03T04:32:15.748Z,7.10
2019-05-03T04:34:45.302Z,7.00
2019-05-03T04:37:16.207Z,6.90
2019-05-03T04:39:45.647Z,7.00
2019-05-03T04:42:16.452Z,7.00
2019-05-03T04:44:45.574Z,7.00
2019-05-03T04:47:15.643Z,7.00
2019-05-03T04:49:46.325Z,7.00
2019-05-03T04:52:16.482Z,7.00
2019-05-03T04:54:46.312Z,7.00
2019-05-03T04:57:17.554Z,6.80
2019-05-03T04:59:45.322Z,6.80
2019-05-03T05:02:15.941Z,6.80
2019-05-03T05:04:46.270Z,7.00
2019-05-03T05:07:15.486Z,6.90
2019-05-03T05:09:45.606Z,6.90
2019-05-03T05:12:16.164Z,7.00
2019-05-03T05:14:45.715Z,7.10
2019-05-03T05:17:16.543Z,7.10
2019-05-03T05:19:58.768Z,7.10
2019-05-03T05:22:28.928Z,7.10
2019-05-03T05:24:58.446Z,7.40
2019-05-03T05:27:34.678Z,7.40
2019-05-03T05:30:07.539Z,7.20
2019-05-03T05:32:36.054Z,7.20
2019-05-03T05:35:05.865Z,7.30
2019-05-03T05:37:35.211Z,7.30
2019-05-03T05:40:07.570Z,7.50
2019-05-03T05:42:36.036Z,7.60
2019-05-03T05:45:06.692Z,7.50
2019-05-03T05:47:36.845Z,7.60
2019-05-03T05:50:09.784Z,7.60
2019-05-03T05:52:38.233Z,7.80
2019-05-03T05:55:20.889Z,7.60
2019-05-03T05:58:08.335Z,7.70
2019-05-03T06:00:41.829Z,7.70
2019-05-03T06:03:10.265Z,7.60
2019-05-03T06:05:38.795Z,7.80
2019-05-03T06:08:15.075Z,8.00
2019-05-03T06:10:48.262Z,7.90
2019-05-03T06:13:21.116Z,7.90
2019-05-03T06:15:54.813Z,7.80
2019-05-03T06:18:31.105Z,7.70
2019-05-03T06:21:01.258Z,7.80
2019-05-03T06:23:31.335Z,7.80
2019-05-03T06:26:00.282Z,7.90
2019-05-03T06:28:35.115Z,7.80
2019-05-03T06:31:10.896Z,8.00
2019-05-03T06:33:39.348Z,8.00
2019-05-03T06:36:07.815Z,8.30
2019-05-03T06:38:36.284Z,8.60
2019-05-03T06:41:04.843Z,8.40
2019-05-03T06:43:34.859Z,8.00
2019-05-03T06:46:05.347Z,8.00
2019-05-03T06:48:35.230Z,8.10
2019-05-03T06:51:08.691Z,8.40
2019-05-03T06:53:34.581Z,8.20
2019-05-03T06:56:04.560Z,7.90
2019-05-03T06:58:36.184Z,8.10
2019-05-03T07:01:11.419Z,8.20
2019-05-03T07:03:47.695Z,8.30
2019-05-03T07:06:17.801Z,8.30
2019-05-03T07:08:47.867Z,7.90
2019-05-03T07:11:16.297Z,7.80
2019-05-03T07:13:46.192Z,8.00
2019-05-03T07:16:15.008Z,8.00
2019-05-03T07:18:45.426Z,8.00
2019-05-03T07:21:15.255Z,8.00
2019-05-03T07:23:45.087Z,8.10
2019-05-03T07:26:15.083Z,8.00
2019-05-03T07:28:47.831Z,8.00
2019-05-03T07:31:15.062Z,8.40
2019-05-03T07:33:44.629Z,9.10
2019-05-03T07:36:15.294Z,9.10
2019-05-03T07:38:45.222Z,8.90
2019-05-03T07:41:14.910Z,9.10
2019-05-03T07:43:45.075Z,9.20
2019-05-03T07:46:14.719Z,8.90
2019-05-03T07:48:45.524Z,8.40
2019-05-03T07:51:14.469Z,8.50
2019-05-03T07:53:44.973Z,8.60
2019-05-03T07:56:15.457Z,8.50
2019-05-03T07:58:59.087Z,8.40
2019-05-03T08:01:20.499Z,8.60
2019-05-03T08:03:49.000Z,8.60
2019-05-03T08:06:17.461Z,8.60
2019-05-03T08:08:45.889Z,8.90
2019-05-03T08:11:14.594Z,9.00
2019-05-03T08:13:44.656Z,9.00
2019-05-03T08:16:13.295Z,9.30
2019-05-03T08:18:41.718Z,9.30
2019-05-03T08:21:10.238Z,9.40
2019-05-03T08:23:38.730Z,8.70
2019-05-03T08:26:07.330Z,8.70
2019-05-03T08:28:35.757Z,8.90
2019-05-03T08:31:14.940Z,8.90
2019-05-03T08:34:04.802Z,9.30
2019-05-03T08:36:37.321Z,9.50
2019-05-03T08:39:06.425Z,9.70
2019-05-03T08:41:36.969Z,9.90
2019-05-03T08:44:05.406Z,9.80
2019-05-03T08:46:35.573Z,9.20
2019-05-03T08:49:05.161Z,9.30
2019-05-03T08:51:35.224Z,9.30
2019-05-03T08:54:04.717Z,9.40
2019-05-03T08:56:34.861Z,9.40
2019-05-03T08:59:04.652Z,9.20
2019-05-03T09:01:35.727Z,9.10
2019-05-03T09:04:04.995Z,8.90
2019-05-03T09:06:35.367Z,8.90
2019-05-03T09:09:06.763Z,9.00
2019-05-03T09:11:36.859Z,8.90
2019-05-03T09:14:09.970Z,8.80
2019-05-03T09:16:38.491Z,8.90
2019-05-03T09:19:07.014Z,9.00
2019-05-03T09:21:35.469Z,9.30
2019-05-03T09:24:04.732Z,9.40
2019-05-03T09:26:34.841Z,9.20
2019-05-03T09:29:05.390Z,9.00
2019-05-03T09:31:35.232Z,8.90
2019-05-03T09:34:07.707Z,9.20
2019-05-03T09:36:34.558Z,9.50
2019-05-03T09:39:05.015Z,9.30
2019-05-03T09:41:34.729Z,9.40
2019-05-03T09:44:04.727Z,9.40
2019-05-03T09:46:35.305Z,9.80
2019-05-03T09:49:13.163Z,9.70
2019-05-03T09:51:35.030Z,9.30
2019-05-03T09:54:08.130Z,9.20
2019-05-03T09:56:58.187Z,9.50
2019-05-03T09:59:26.010Z,9.70
2019-05-03T10:01:54.888Z,9.60
2019-05-03T10:04:25.436Z,9.60
2019-05-03T10:06:54.871Z,9.40
2019-05-03T10:09:25.787Z,9.60
2019-05-03T10:11:55.123Z,9.80
2019-05-03T10:14:24.079Z,9.80
2019-05-03T10:17:06.154Z,9.80
2019-05-03T10:19:39.924Z,10.20
2019-05-03T10:22:05.951Z,10.30
2019-05-03T10:24:35.083Z,10.30
2019-05-03T10:27:05.471Z,10.20
2019-05-03T10:29:33.813Z,10.30
2019-05-03T10:32:12.528Z,10.40
2019-05-03T10:34:42.627Z,10.70
2019-05-03T10:37:15.081Z,10.50
2019-05-03T10:39:43.021Z,10.20
2019-05-03T10:42:11.458Z,10.10
2019-05-03T10:44:39.906Z,10.70
2019-05-03T10:47:08.378Z,10.90
2019-05-03T10:49:37.510Z,10.50
2019-05-03T10:52:07.682Z,10.40
2019-05-03T10:54:36.133Z,10.40
2019-05-03T10:57:06.394Z,10.60
2019-05-03T10:59:35.606Z,10.30
2019-05-03T11:02:08.988Z,10.20
2019-05-03T11:04:37.458Z,10.10
2019-05-03T11:07:05.895Z,10.00
2019-05-03T11:09:48.018Z,10.00
2019-05-03T11:12:05.424Z,10.90
2019-05-03T11:14:35.010Z,11.60
2019-05-03T11:17:05.516Z,11.20
2019-05-03T11:19:34.732Z,10.80
2019-05-03T11:22:05.260Z,10.50
2019-05-03T11:24:34.864Z,10.70
2019-05-03T11:27:05.432Z,10.60
2019-05-03T11:29:35.558Z,10.60
2019-05-03T11:32:09.202Z,10.70
2019-05-03T11:34:55.299Z,10.40
2019-05-03T11:37:45.283Z,10.50
2019-05-03T11:40:15.559Z,10.60
2019-05-03T11:42:44.850Z,11.50
2019-05-03T11:45:15.230Z,11.50
2019-05-03T11:47:45.758Z,11.30
2019-05-03T11:50:14.892Z,11.30
2019-05-03T11:52:46.819Z,10.90
2019-05-03T11:55:15.996Z,10.90
2019-05-03T11:57:44.997Z,10.90
2019-05-03T12:00:16.529Z,11.60
2019-05-03T12:02:46.597Z,12.10
2019-05-03T12:05:19.794Z,11.90
2019-05-03T12:07:48.225Z,11.80
2019-05-03T12:10:33.249Z,11.50
2019-05-03T12:12:48.829Z,11.70
2019-05-03T12:15:17.394Z,11.70
2019-05-03T12:17:54.332Z,11.50
2019-05-03T12:20:19.750Z,11.60
2019-05-03T12:22:49.093Z,11.30
2019-05-03T12:25:18.665Z,11.50
2019-05-03T12:27:47.714Z,11.30
2019-05-03T12:30:16.780Z,11.20
2019-05-03T12:32:45.211Z,11.30
2019-05-03T12:35:15.358Z,11.30
2019-05-03T12:37:43.951Z,11.30
2019-05-03T12:40:14.739Z,11.50
2019-05-03T12:42:45.278Z,11.20
2019-05-03T12:45:15.276Z,11.40
2019-05-03T12:47:45.302Z,12.00
2019-05-03T12:50:15.605Z,12.70
2019-05-03T12:52:50.374Z,12.50
2019-05-03T12:55:15.353Z,11.90
2019-05-03T12:57:45.712Z,11.40
2019-05-03T13:00:18.004Z,11.40
2019-05-03T13:03:00.214Z,11.60
2019-05-03T13:05:29.655Z,11.40
2019-05-03T13:08:16.385Z,11.50
2019-05-03T13:10:45.478Z,11.70
2019-05-03T13:13:14.654Z,11.60
2019-05-03T13:15:43.242Z,11.60
2019-05-03T13:18:12.227Z,11.70
2019-05-03T13:20:40.757Z,12.10
2019-05-03T13:23:09.230Z,11.60
2019-05-03T13:25:37.672Z,11.80
2019-05-03T13:28:06.139Z,11.90
2019-05-03T13:30:34.691Z,11.50
2019-05-03T13:33:05.594Z,11.40
2019-05-03T13:35:35.193Z,11.60
2019-05-03T13:38:03.654Z,11.50
2019-05-03T13:40:32.101Z,11.30
2019-05-03T13:43:03.726Z,11.30
2019-05-03T13:45:30.726Z,11.60
2019-05-03T13:47:59.162Z,11.80
2019-05-03T13:50:27.614Z,11.90
2019-05-03T13:52:56.078Z,12.10
2019-05-03T13:55:24.630Z,12.20
2019-05-03T13:57:54.837Z,12.30
2019-05-03T14:00:24.670Z,11.80
2019-05-03T14:02:53.250Z,11.70
2019-05-03T14:05:21.780Z,11.90
2019-05-03T14:07:50.241Z,12.20
2019-05-03T14:10:18.946Z,12.20
2019-05-03T14:12:47.382Z,12.60
2019-05-03T14:15:17.845Z,12.40
2019-05-03T14:17:46.320Z,12.10
2019-05-03T14:20:19.647Z,11.90
2019-05-03T14:22:49.782Z,12.20
2019-05-03T14:25:18.290Z,12.00
2019-05-03T14:27:46.746Z,11.90
2019-05-03T14:30:15.679Z,11.50
2019-05-03T14:32:45.313Z,11.60
2019-05-03T14:35:14.427Z,11.40
2019-05-03T14:37:45.946Z,11.40
2019-05-03T14:40:14.685Z,11.60
2019-05-03T14:42:44.612Z,11.80
2019-05-03T14:45:15.096Z,11.60
2019-05-03T14:47:43.602Z,11.90
2019-05-03T14:50:14.793Z,11.80
2019-05-03T14:52:42.837Z,11.60
2019-05-03T14:55:15.826Z,11.80
2019-05-03T14:58:02.133Z,11.90
2019-05-03T15:00:35.017Z,11.80
2019-05-03T15:03:11.952Z,11.80
2019-05-03T15:05:40.546Z,11.90
2019-05-03T15:08:09.017Z,12.00
2019-05-03T15:10:37.446Z,11.80
2019-05-03T15:13:05.928Z,11.80
2019-05-03T15:15:34.679Z,11.80
2019-05-03T15:18:05.676Z,11.90
2019-05-03T15:20:34.781Z,11.90
2019-05-03T15:23:05.341Z,11.70
2019-05-03T15:25:34.585Z,11.70
2019-05-03T15:28:05.050Z,11.90
2019-05-03T15:30:35.283Z,11.80
2019-05-03T15:33:04.944Z,11.80
2019-05-03T15:35:35.165Z,11.70
2019-05-03T15:38:05.379Z,11.60
2019-05-03T15:40:34.139Z,11.40
2019-05-03T15:43:05.570Z,11.30
2019-05-03T15:45:41.778Z,11.30
2019-05-03T15:48:20.438Z,11.10
2019-05-03T15:50:48.941Z,11.10
2019-05-03T15:53:17.431Z,11.10
2019-05-03T15:55:45.885Z,10.90
2019-05-03T15:58:15.352Z,10.70
2019-05-03T16:00:44.544Z,10.80
2019-05-03T16:03:14.522Z,10.60
2019-05-03T16:05:44.722Z,10.70
2019-05-03T16:08:15.269Z,10.60
2019-05-03T16:10:45.523Z,10.70
2019-05-03T16:13:14.324Z,10.60
2019-05-03T16:15:44.534Z,10.60
2019-05-03T16:18:14.805Z,10.60
2019-05-03T16:20:45.081Z,10.60
2019-05-03T16:23:15.390Z,10.70
2019-05-03T16:25:44.816Z,10.60
2019-05-03T16:28:15.303Z,10.60
2019-05-03T16:30:47.974Z,10.70
2019-05-03T16:33:26.663Z,10.60
2019-05-03T16:35:46.623Z,10.60
2019-05-03T16:38:15.687Z,10.60
2019-05-03T16:40:45.113Z,10.60
2019-05-03T16:43:15.992Z,10.60
2019-05-03T16:45:44.489Z,10.60
2019-05-03T16:48:15.012Z,10.60
2019-05-03T16:50:45.122Z,10.60
2019-05-03T16:53:14.797Z,10.60
2019-05-03T16:55:44.361Z,10.50
2019-05-03T16:58:14.898Z,10.50
2019-05-03T17:00:44.744Z,10.40
2019-05-03T17:03:14.712Z,10.40
2019-05-03T17:05:47.882Z,10.40
2019-05-03T17:08:34.667Z,10.40
2019-05-03T17:11:07.562Z,10.50
2019-05-03T17:13:36.111Z,10.40
2019-05-03T17:16:06.792Z,10.40
2019-05-03T17:18:35.380Z,10.30
2019-05-03T17:21:04.820Z,10.20
2019-05-03T17:23:35.139Z,10.30
2019-05-03T17:26:03.468Z,10.20
2019-05-03T17:28:32.003Z,10.20
2019-05-03T17:31:00.804Z,10.10
2019-05-03T17:33:29.326Z,10.10
2019-05-03T17:35:58.334Z,10.10
2019-05-03T17:38:26.836Z,10.10
2019-05-03T17:40:56.954Z,10.00
2019-05-03T17:43:29.845Z,10.00
2019-05-03T17:46:04.414Z,10.00
2019-05-03T17:48:34.527Z,10.00
2019-05-03T17:51:04.420Z,10.00
2019-05-03T17:53:37.419Z,10.00
2019-05-03T17:56:15.152Z,9.90
2019-05-03T17:58:56.980Z,9.90
2019-05-03T18:01:39.302Z,10.00
2019-05-03T18:04:18.542Z,9.80
2019-05-03T18:06:48.694Z,9.80
2019-05-03T18:09:21.471Z,9.80
2019-05-03T18:11:54.244Z,9.80
2019-05-03T18:14:22.853Z,9.80
2019-05-03T18:16:51.279Z,9.70
2019-05-03T18:19:19.742Z,9.60
2019-05-03T18:21:48.217Z,9.60
2019-05-03T18:24:16.740Z,9.60
2019-05-03T18:26:45.475Z,9.60
2019-05-03T18:29:14.673Z,9.60
2019-05-03T18:31:44.601Z,9.60
2019-05-03T18:34:19.712Z,9.50
2019-05-03T18:36:45.042Z,9.50
2019-05-03T18:39:14.745Z,9.40
2019-05-03T18:41:45.052Z,9.40
2019-05-03T18:44:34.618Z,9.30
2019-05-03T18:47:05.441Z,9.40
2019-05-03T18:49:35.334Z,9.30
2019-05-03T18:52:04.449Z,9.30
2019-05-03T18:54:34.945Z,9.30
2019-05-03T18:57:04.949Z,9.20
2019-05-03T18:59:33.485Z,9.20
2019-05-03T19:02:02.122Z,9.20
2019-05-03T19:04:38.089Z,9.10
2019-05-03T19:07:08.345Z,9.00
2019-05-03T19:09:47.258Z,9.00
2019-05-03T19:12:17.361Z,9.00
2019-05-03T19:14:46.338Z,9.00
2019-05-03T19:17:32.620Z,8.90
2019-05-03T19:20:01.687Z,9.00
2019-05-03T19:22:30.290Z,8.90
2019-05-03T19:24:58.829Z,8.80
2019-05-03T19:27:27.309Z,8.80
2019-05-03T19:29:55.765Z,8.80
2019-05-03T19:32:25.590Z,8.80
2019-05-03T19:34:54.963Z,8.80
2019-05-03T19:37:25.215Z,8.80
2019-05-03T19:39:55.225Z,8.70
2019-05-03T19:42:26.918Z,8.70
2019-05-03T19:44:55.285Z,8.70
2019-05-03T19:47:25.286Z,8.70
2019-05-03T19:49:54.720Z,8.70
2019-05-03T19:52:25.410Z,8.70
2019-05-03T19:54:55.464Z,8.70
2019-05-03T19:57:25.657Z,8.70
2019-05-03T19:59:56.720Z,8.70
2019-05-03T20:02:26.627Z,8.80
2019-05-03T20:04:59.984Z,8.70
2019-05-03T20:07:28.561Z,8.70
2019-05-03T20:09:57.014Z,8.70
2019-05-03T20:12:25.525Z,8.80
2019-05-03T20:14:54.620Z,8.70
2019-05-03T20:17:23.235Z,8.70
2019-05-03T20:19:51.675Z,8.50
2019-05-03T20:22:20.267Z,8.50
2019-05-03T20:24:48.734Z,8.40
2019-05-03T20:27:17.242Z,8.30
2019-05-03T20:29:46.256Z,8.30
2019-05-03T20:32:15.972Z,8.40
2019-05-03T20:34:44.658Z,8.30
2019-05-03T20:37:14.658Z,8.20
2019-05-03T20:39:43.429Z,8.30
2019-05-03T20:42:15.373Z,8.30
2019-05-03T20:44:51.465Z,8.20
2019-05-03T20:47:21.539Z,8.20
2019-05-03T20:50:08.067Z,8.20
2019-05-03T20:52:37.118Z,8.20
2019-05-03T20:55:05.629Z,8.20
2019-05-03T20:57:35.298Z,8.00
2019-05-03T21:00:11.450Z,8.00
2019-05-03T21:02:50.799Z,8.00
2019-05-03T21:05:10.664Z,7.90
2019-05-03T21:07:40.830Z,7.90
2019-05-03T21:10:09.961Z,7.90
2019-05-03T21:12:38.401Z,7.90
2019-05-03T21:15:28.110Z,7.80
2019-05-03T21:17:58.213Z,7.80
2019-05-03T21:20:37.022Z,7.80
2019-05-03T21:23:07.730Z,7.70
2019-05-03T21:26:02.783Z,7.70
2019-05-03T21:28:07.979Z,7.70
2019-05-03T21:30:36.458Z,7.60
2019-05-03T21:33:05.421Z,7.60
2019-05-03T21:35:41.481Z,7.50
2019-05-03T21:38:04.187Z,7.40
2019-05-03T21:40:34.518Z,7.30
2019-05-03T21:43:04.750Z,7.30
2019-05-03T21:45:36.873Z,7.20
2019-05-03T21:48:09.697Z,7.20
2019-05-03T21:50:38.130Z,7.10
2019-05-03T21:53:09.199Z,7.20
2019-05-03T21:55:37.793Z,7.20
2019-05-03T21:58:06.258Z,7.20
2019-05-03T22:00:39.585Z,7.10
2019-05-03T22:03:08.112Z,7.10
2019-05-03T22:05:36.558Z,7.10
2019-05-03T22:08:05.070Z,7.00
2019-05-03T22:10:34.600Z,7.00
2019-05-03T22:13:04.839Z,7.00
2019-05-03T22:15:35.153Z,7.00
2019-05-03T22:18:08.206Z,7.00
2019-05-03T22:20:38.301Z,7.10
2019-05-03T22:23:17.302Z,7.00
2019-05-03T22:25:45.763Z,7.10
2019-05-03T22:28:15.551Z,7.00
2019-05-03T22:30:45.331Z,6.90
2019-05-03T22:33:14.519Z,6.90
2019-05-03T22:35:44.515Z,6.80
2019-05-03T22:38:13.199Z,6.90
2019-05-03T22:40:41.630Z,6.90
2019-05-03T22:43:10.345Z,6.90
2019-05-03T22:45:38.806Z,6.90
2019-05-03T22:48:07.246Z,6.90
2019-05-03T22:50:35.712Z,7.00
2019-05-03T22:53:05.578Z,7.00
2019-05-03T22:55:34.878Z,6.70
2019-05-03T22:58:05.091Z,6.50
2019-05-03T23:00:35.287Z,6.10
2019-05-03T23:03:03.963Z,6.10
2019-05-03T23:05:32.440Z,5.90
2019-05-03T23:08:00.895Z,5.90
2019-05-03T23:10:29.322Z,5.80
2019-05-03T23:12:57.786Z,5.60
2019-05-03T23:15:26.321Z,5.80
2019-05-03T23:17:54.782Z,5.80
2019-05-03T23:20:37.097Z,5.70
2019-05-03T23:23:05.636Z,5.80
2019-05-03T23:25:35.563Z,5.90
2019-05-03T23:28:04.338Z,5.90
2019-05-03T23:30:32.805Z,6.00
2019-05-03T23:33:01.622Z,5.90
2019-05-03T23:35:30.114Z,6.00
2019-05-03T23:37:58.543Z,6.10
2019-05-03T23:40:27.001Z,6.10
2019-05-03T23:42:55.445Z,5.90
2019-05-03T23:45:25.548Z,5.80
2019-05-03T23:47:54.218Z,5.70
2019-05-03T23:50:24.899Z,5.70
2019-05-03T23:52:54.525Z,5.80
2019-05-03T23:55:27.781Z,5.90
2019-05-03T23:57:56.238Z,5.90
